createdAt,value
2022-12-17T00:03:02.887Z,35.00
2022-12-17T00:05:48.234Z,33.95
2022-12-17T00:08:40.308Z,36.38
2022-12-17T00:11:42.479Z,33.70
2022-12-17T00:14:35.462Z,34.50
2022-12-17T00:17:21.625Z,34.03
2022-12-17T00:20:06.504Z,35.15
2022-12-17T00:22:51.280Z,34.10
2022-12-17T00:25:36.121Z,33.42
2022-12-17T00:28:20.896Z,34.08
2022-12-17T00:31:21.441Z,33.97
2022-12-17T00:34:06.501Z,33.35
2022-12-17T00:36:51.239Z,33.20
2022-12-17T00:39:36.124Z,32.88
2022-12-17T00:42:20.916Z,33.35
2022-12-17T00:45:11.912Z,32.35
2022-12-17T00:47:56.805Z,31.23
2022-12-17T00:50:41.598Z,33.83
2022-12-17T00:53:27.404Z,31.13
2022-12-17T00:56:12.146Z,32.63
2022-12-17T00:59:03.988Z,30.60
2022-12-17T01:01:51.187Z,32.55
2022-12-17T01:04:37.308Z,32.97
2022-12-17T01:07:22.033Z,34.15
2022-12-17T01:10:06.789Z,35.10
2022-12-17T01:12:51.551Z,33.50
2022-12-17T01:15:37.137Z,32.63
2022-12-17T01:18:57.498Z,34.13
2022-12-17T01:21:42.104Z,34.67
2022-12-17T01:24:27.127Z,33.08
2022-12-17T01:27:11.972Z,31.05
2022-12-17T01:29:56.645Z,33.10
2022-12-17T01:32:41.637Z,33.15
2022-12-17T01:35:27.979Z,34.83
2022-12-17T01:38:12.964Z,31.65
2022-12-17T01:40:57.725Z,35.55
2022-12-17T01:43:53.746Z,34.72
2022-12-17T01:46:41.275Z,32.47
2022-12-17T01:49:28.211Z,35.53
2022-12-17T01:52:13.981Z,31.85
2022-12-17T01:54:59.812Z,33.13
2022-12-17T01:57:45.645Z,25.13
2022-12-17T02:00:34.615Z,32.15
2022-12-17T02:03:19.432Z,30.13
2022-12-17T02:06:29.407Z,34.00
2022-12-17T02:09:35.667Z,32.60
2022-12-17T02:12:33.466Z,30.80
2022-12-17T02:15:32.538Z,29.20
2022-12-17T02:18:30.059Z,28.42
2022-12-17T02:21:16.453Z,28.02
2022-12-17T02:24:20.159Z,27.80
2022-12-17T02:27:10.120Z,28.35
2022-12-17T02:30:02.496Z,28.48
2022-12-17T02:32:49.176Z,26.45
2022-12-17T02:35:46.069Z,25.73
2022-12-17T02:41:40.281Z,26.10
2022-12-17T02:44:28.130Z,27.58
2022-12-17T02:47:16.826Z,26.92
2022-12-17T02:50:02.590Z,25.05
2022-12-17T02:52:49.458Z,27.38
2022-12-17T02:55:34.249Z,26.67
2022-12-17T02:58:18.917Z,27.05
2022-12-17T03:01:04.985Z,26.63
2022-12-17T03:03:50.567Z,28.67
2022-12-17T03:06:36.159Z,26.23
2022-12-17T03:09:22.161Z,28.95
2022-12-17T03:12:06.811Z,26.98
2022-12-17T03:14:51.664Z,29.10
2022-12-17T03:17:36.790Z,26.55
2022-12-17T03:20:22.238Z,24.85
2022-12-17T03:23:07.105Z,25.00
2022-12-17T03:25:51.999Z,26.45
2022-12-17T03:28:37.007Z,30.40
2022-12-17T03:31:26.010Z,28.85
2022-12-17T03:34:12.751Z,29.83
2022-12-17T03:36:57.511Z,27.10
2022-12-17T03:39:42.329Z,27.02
2022-12-17T03:42:27.101Z,28.65
2022-12-17T03:45:11.912Z,28.17
2022-12-17T03:48:04.067Z,27.42
2022-12-17T03:50:48.919Z,27.67
2022-12-17T03:53:33.913Z,26.58
2022-12-17T03:56:19.121Z,27.65
2022-12-17T03:59:03.925Z,29.10
2022-12-17T04:01:48.950Z,27.58
2022-12-17T04:04:33.662Z,28.20
2022-12-17T04:07:19.338Z,27.45
2022-12-17T04:10:04.281Z,27.90
2022-12-17T04:12:49.014Z,28.05
2022-12-17T04:15:34.294Z,29.92
2022-12-17T04:18:25.698Z,28.30
2022-12-17T04:21:10.441Z,29.52
2022-12-17T04:23:55.348Z,27.05
2022-12-17T04:26:46.613Z,28.15
2022-12-17T04:29:31.302Z,27.63
2022-12-17T04:32:16.380Z,28.65
2022-12-17T04:35:01.163Z,31.02
2022-12-17T04:37:45.885Z,28.75
2022-12-17T04:40:30.809Z,31.40
2022-12-17T04:43:15.658Z,32.17
2022-12-17T04:46:00.818Z,30.65
2022-12-17T04:48:45.866Z,29.02
2022-12-17T04:51:30.543Z,28.17
2022-12-17T04:54:15.397Z,29.05
2022-12-17T04:57:00.240Z,31.13
2022-12-17T04:59:45.125Z,31.38
2022-12-17T05:02:30.178Z,29.23
2022-12-17T05:05:17.356Z,27.77
2022-12-17T05:08:02.165Z,28.95
2022-12-17T05:10:46.868Z,29.45
2022-12-17T05:13:31.569Z,28.63
2022-12-17T05:16:20.614Z,29.25
2022-12-17T05:19:05.670Z,31.52
2022-12-17T05:21:50.445Z,29.05
2022-12-17T05:24:35.145Z,28.02
2022-12-17T05:27:19.825Z,28.98
2022-12-17T05:30:04.687Z,28.98
2022-12-17T05:32:49.649Z,27.40
2022-12-17T05:35:34.961Z,27.35
2022-12-17T05:38:27.402Z,29.42
2022-12-17T05:41:16.366Z,28.60
2022-12-17T05:44:01.617Z,26.58
2022-12-17T05:46:47.673Z,26.63
2022-12-17T05:49:32.707Z,25.77
2022-12-17T05:52:17.345Z,26.30
2022-12-17T05:55:02.114Z,27.40
2022-12-17T05:57:50.488Z,27.38
2022-12-17T06:00:51.235Z,25.90
2022-12-17T06:03:36.490Z,24.80
2022-12-17T06:06:21.825Z,28.23
2022-12-17T06:09:13.549Z,25.35
2022-12-17T06:12:02.553Z,26.98
2022-12-17T06:14:48.151Z,29.13
2022-12-17T06:17:34.188Z,29.20
2022-12-17T06:20:18.997Z,28.98
2022-12-17T06:23:23.643Z,28.23
2022-12-17T06:26:11.705Z,27.85
2022-12-17T06:28:56.729Z,29.10
2022-12-17T06:31:42.098Z,29.25
2022-12-17T06:34:34.445Z,29.90
2022-12-17T06:37:19.175Z,28.13
2022-12-17T06:40:04.024Z,29.45
2022-12-17T06:42:49.874Z,28.20
2022-12-17T06:45:34.975Z,22.65
2022-12-17T06:48:24.017Z,28.42
2022-12-17T06:51:08.935Z,30.35
2022-12-17T06:53:53.881Z,29.67
2022-12-17T06:56:47.918Z,30.40
2022-12-17T06:59:32.792Z,30.92
2022-12-17T07:02:19.891Z,31.27
2022-12-17T07:05:05.103Z,32.65
2022-12-17T07:07:56.002Z,28.90
2022-12-17T07:10:42.167Z,29.70
2022-12-17T07:13:28.001Z,30.50
2022-12-17T07:16:13.813Z,30.15
2022-12-17T07:18:58.856Z,37.05
2022-12-17T07:21:45.294Z,29.73
2022-12-17T07:27:15.848Z,30.52
2022-12-17T07:30:00.721Z,34.67
2022-12-17T07:32:45.851Z,31.90
2022-12-17T07:35:31.128Z,31.15
2022-12-17T07:38:20.714Z,34.08
2022-12-17T07:41:07.887Z,43.85
2022-12-17T07:43:53.788Z,33.88
2022-12-17T07:46:47.891Z,32.55
2022-12-17T07:49:55.891Z,52.97
2022-12-17T07:52:54.063Z,33.80
2022-12-17T07:55:39.873Z,30.13
2022-12-17T07:58:31.818Z,33.20
2022-12-17T08:01:21.112Z,28.02
2022-12-17T08:04:15.562Z,35.92
2022-12-17T08:07:08.394Z,35.55
2022-12-17T08:09:55.481Z,49.70
2022-12-17T08:12:46.412Z,56.80
2022-12-17T08:15:32.599Z,33.35
2022-12-17T08:18:26.234Z,30.77
2022-12-17T08:21:17.605Z,36.53
2022-12-17T08:24:12.491Z,29.25
2022-12-17T08:26:59.140Z,28.88
2022-12-17T08:29:51.970Z,31.17
2022-12-17T08:32:37.051Z,29.50
2022-12-17T08:35:23.559Z,31.75
2022-12-17T08:38:36.625Z,27.88
2022-12-17T08:41:43.662Z,27.02
2022-12-17T08:44:35.701Z,27.52
2022-12-17T08:47:20.848Z,28.25
2022-12-17T08:50:07.639Z,27.20
2022-12-17T08:52:56.981Z,28.23
2022-12-17T08:55:41.733Z,31.95
2022-12-17T08:58:26.948Z,30.35
2022-12-17T09:01:12.156Z,39.67
2022-12-17T09:03:58.333Z,48.88
2022-12-17T09:06:44.254Z,31.88
2022-12-17T09:09:29.633Z,33.25
2022-12-17T09:12:14.409Z,31.15
2022-12-17T09:14:59.181Z,40.45
2022-12-17T09:17:44.187Z,30.80
2022-12-17T09:20:29.772Z,31.23
2022-12-17T09:23:15.379Z,23.08
2022-12-17T09:26:00.627Z,29.70
2022-12-17T09:28:46.003Z,29.08
2022-12-17T09:31:37.869Z,27.20
2022-12-17T09:34:25.724Z,30.27
2022-12-17T09:37:10.720Z,32.22
2022-12-17T09:39:58.219Z,33.38
2022-12-17T09:42:59.842Z,30.13
2022-12-17T09:45:55.722Z,31.05
2022-12-17T09:48:56.210Z,30.65
2022-12-17T09:52:04.131Z,28.20
2022-12-17T13:30:17.433Z,24.35
2022-12-17T13:33:28.015Z,22.83
2022-12-17T13:36:22.094Z,22.35
2022-12-17T13:38:54.422Z,20.67
2022-12-17T13:41:28.778Z,20.02
2022-12-17T13:44:20.069Z,19.27
2022-12-17T13:47:03.080Z,18.48
2022-12-17T13:49:31.749Z,19.73
2022-12-17T13:52:30.424Z,19.67
2022-12-17T13:55:09.558Z,19.27
2022-12-17T13:57:52.622Z,18.92
2022-12-17T14:00:30.822Z,20.23
2022-12-17T14:02:57.424Z,19.73
2022-12-17T14:05:30.726Z,20.33
2022-12-17T14:08:08.323Z,21.63
2022-12-17T14:10:34.750Z,19.20
2022-12-17T14:13:08.443Z,18.90
2022-12-17T14:15:35.313Z,19.80
2022-12-17T14:18:05.282Z,18.70
2022-12-17T14:20:36.298Z,19.13
2022-12-17T14:23:17.160Z,18.83
2022-12-17T14:25:44.343Z,19.17
2022-12-17T14:28:29.065Z,18.77
2022-12-17T14:31:30.855Z,19.13
2022-12-17T14:34:10.896Z,19.02
2022-12-17T14:36:43.547Z,19.38
2022-12-17T14:39:31.602Z,18.58
2022-12-17T14:42:25.330Z,17.80
2022-12-17T14:44:54.376Z,17.73
2022-12-17T14:47:29.881Z,16.95
2022-12-17T14:50:01.214Z,17.55
2022-12-17T14:52:44.394Z,17.77
2022-12-17T14:55:55.023Z,17.08
2022-12-17T14:58:23.594Z,16.60
2022-12-17T15:01:12.395Z,17.23
2022-12-17T15:03:41.940Z,18.08
2022-12-17T15:06:17.790Z,18.23
2022-12-17T15:08:49.390Z,16.75
2022-12-17T15:11:20.134Z,17.95
2022-12-17T15:13:56.291Z,19.77
2022-12-17T15:16:23.558Z,18.70
2022-12-17T15:18:50.003Z,18.15
2022-12-17T15:21:18.469Z,17.73
2022-12-17T15:23:46.390Z,17.30
2022-12-17T15:26:15.094Z,16.58
2022-12-17T15:28:42.774Z,16.35
2022-12-17T15:31:12.165Z,15.82
2022-12-17T15:33:38.948Z,16.45
2022-12-17T15:36:07.070Z,15.07
2022-12-17T15:38:33.912Z,14.60
2022-12-17T15:41:01.765Z,15.30
2022-12-17T15:43:28.175Z,13.80
2022-12-17T15:46:01.025Z,14.38
2022-12-17T15:48:27.435Z,13.60
2022-12-17T15:50:53.841Z,13.88
2022-12-17T15:53:20.261Z,14.70
2022-12-17T15:55:46.767Z,14.18
2022-12-17T15:58:19.329Z,13.32
2022-12-17T16:00:45.754Z,14.32
2022-12-17T16:03:12.262Z,13.70
2022-12-17T16:05:38.789Z,12.93
2022-12-17T16:08:05.337Z,13.77
2022-12-17T16:10:31.839Z,13.23
2022-12-17T16:12:58.276Z,14.10
2022-12-17T16:15:33.910Z,14.02
2022-12-17T16:18:00.351Z,13.45
2022-12-17T16:20:26.760Z,14.18
2022-12-17T16:22:53.324Z,14.35
2022-12-17T16:25:19.811Z,17.00
2022-12-17T16:27:46.504Z,16.58
2022-12-17T16:30:13.709Z,16.02
2022-12-17T16:32:40.185Z,16.88
2022-12-17T16:35:06.976Z,16.27
2022-12-17T16:37:33.454Z,17.92
2022-12-17T16:40:01.044Z,16.65
2022-12-17T16:42:28.000Z,19.10
2022-12-17T16:44:54.425Z,18.80
2022-12-17T16:47:21.947Z,16.88
2022-12-17T16:49:50.601Z,17.63
2022-12-17T16:52:17.031Z,19.02
2022-12-17T16:54:45.459Z,19.13
2022-12-17T16:57:11.910Z,17.15
2022-12-17T16:59:39.687Z,17.08
2022-12-17T17:02:12.725Z,15.68
2022-12-17T17:04:44.441Z,15.68
2022-12-17T17:07:10.898Z,15.13
2022-12-17T17:09:38.327Z,16.73
2022-12-17T17:12:05.051Z,15.98
2022-12-17T17:14:31.442Z,17.20
2022-12-17T17:17:02.063Z,16.83
2022-12-17T17:19:36.567Z,18.20
2022-12-17T17:22:03.058Z,18.00
2022-12-17T17:24:29.505Z,18.77
2022-12-17T17:26:56.034Z,18.63
2022-12-17T17:29:22.944Z,16.58
2022-12-17T17:34:39.687Z,17.48
2022-12-17T17:37:06.418Z,18.67
2022-12-17T17:39:34.112Z,19.08
2022-12-17T17:42:05.246Z,19.45
2022-12-17T17:44:31.995Z,18.00
2022-12-17T17:46:59.818Z,18.40
2022-12-17T17:49:27.535Z,19.10
2022-12-17T17:52:10.971Z,18.55
2022-12-17T17:54:39.651Z,17.90
2022-12-17T17:57:16.219Z,18.52
2022-12-17T17:59:42.613Z,17.63
